MMC YBBN-YSSY
Flight info
| Callsign | MMC |
|---|---|
| Flight time | 1h 4m |
| Altitude | 40000 |
| Route | BN H91 IGDAM H652 TESAT |
| Aircraft | LJ35/M-VGDW/C |
Departure
| Time | 2026-04-24 08:57 |
|---|---|
| Airport | Brisbane International Airport (YBBN) |
Arrival
| Time | 2026-04-24 10:02 |
|---|---|
| Airport | Sydney Kingsford Smith International Airport (YSSY) |
| Time | Latitude | Longitude | Altitude | Speed | Heading |
|---|---|---|---|---|---|
| 2026-04-24 08:35 | -27.37326 | 153.12571 | 12 ft | 0 kts | 207° |
| 2026-04-24 08:53 | -27.37331 | 153.12568 | 12 ft | 4 kts | 206° |
| 2026-04-24 08:53 | -27.37359 | 153.12598 | 12 ft | 9 kts | 68° |
| 2026-04-24 08:54 | -27.37314 | 153.12632 | 12 ft | 8 kts | 63° |
| 2026-04-24 08:54 | -27.37341 | 153.12705 | 12 ft | 13 kts | 117° |
| 2026-04-24 08:54 | -27.37389 | 153.12812 | 12 ft | 18 kts | 118° |
| 2026-04-24 08:54 | -27.37453 | 153.12949 | 12 ft | 22 kts | 116° |
| 2026-04-24 08:55 | -27.37471 | 153.13062 | 12 ft | 16 kts | 33° |
| 2026-04-24 08:55 | -27.37357 | 153.13127 | 12 ft | 21 kts | 27° |
| 2026-04-24 08:55 | -27.37264 | 153.13207 | 12 ft | 16 kts | 99° |
| 2026-04-24 08:55 | -27.37320 | 153.13333 | 13 ft | 18 kts | 114° |
| 2026-04-24 08:56 | -27.37336 | 153.13373 | 13 ft | 0 kts | 126° |
| 2026-04-24 08:56 | -27.37368 | 153.13408 | 14 ft | 17 kts | 147° |
| 2026-04-24 08:56 | -27.37509 | 153.13407 | 16 ft | 24 kts | 207° |
| 2026-04-24 08:57 | -27.37908 | 153.13178 | 15 ft | 117 kts | 207° |
| 2026-04-24 08:57 | -27.38872 | 153.12624 | 492 ft | 181 kts | 205° |
| 2026-04-24 08:57 | -27.40091 | 153.11948 | 1278 ft | 206 kts | 204° |
| 2026-04-24 08:57 | -27.41429 | 153.11183 | 2034 ft | 219 kts | 203° |
| 2026-04-24 08:58 | -27.42864 | 153.10623 | 2669 ft | 218 kts | 179° |
| 2026-04-24 08:58 | -27.44280 | 153.11054 | 3601 ft | 212 kts | 148° |
| 2026-04-24 08:58 | -27.45440 | 153.12058 | 4333 ft | 207 kts | 142° |
| 2026-04-24 08:58 | -27.46633 | 153.12989 | 4984 ft | 209 kts | 147° |
| 2026-04-24 08:59 | -27.47892 | 153.13815 | 5598 ft | 215 kts | 148° |
| 2026-04-24 08:59 | -27.49248 | 153.14531 | 6676 ft | 216 kts | 161° |
| 2026-04-24 08:59 | -27.50773 | 153.14683 | 7746 ft | 227 kts | 180° |
| 2026-04-24 08:59 | -27.52365 | 153.14313 | 8712 ft | 238 kts | 188° |
| 2026-04-24 09:00 | -27.54078 | 153.13873 | 9686 ft | 265 kts | 187° |
| 2026-04-24 09:00 | -27.55907 | 153.13391 | 11078 ft | 271 kts | 192° |
| 2026-04-24 09:00 | -27.57727 | 153.12687 | 12457 ft | 281 kts | 195° |
| 2026-04-24 09:00 | -27.59579 | 153.11927 | 13874 ft | 287 kts | 195° |
| 2026-04-24 09:01 | -27.61464 | 153.11187 | 15131 ft | 293 kts | 194° |
| 2026-04-24 09:01 | -27.63441 | 153.10535 | 16362 ft | 299 kts | 192° |
| 2026-04-24 09:01 | -27.65461 | 153.09868 | 17624 ft | 306 kts | 193° |
| 2026-04-24 09:01 | -27.67581 | 153.09154 | 18346 ft | 335 kts | 193° |
| 2026-04-24 09:02 | -27.69917 | 153.08376 | 18364 ft | 361 kts | 193° |
| 2026-04-24 09:02 | -27.72385 | 153.07550 | 18366 ft | 379 kts | 193° |
| 2026-04-24 09:02 | -27.74970 | 153.06684 | 18366 ft | 394 kts | 193° |
| 2026-04-24 09:02 | -27.77612 | 153.05799 | 18365 ft | 406 kts | 194° |
| 2026-04-24 09:03 | -27.80348 | 153.04883 | 18369 ft | 414 kts | 194° |
| 2026-04-24 09:03 | -27.83077 | 153.03850 | 18875 ft | 408 kts | 198° |
| 2026-04-24 09:03 | -27.85713 | 153.02673 | 19883 ft | 406 kts | 199° |
| 2026-04-24 09:03 | -27.88359 | 153.01509 | 20987 ft | 409 kts | 198° |
| 2026-04-24 09:04 | -27.91029 | 153.00354 | 22133 ft | 411 kts | 198° |
| 2026-04-24 09:04 | -27.93705 | 152.99186 | 23328 ft | 411 kts | 199° |
| 2026-04-24 09:04 | -27.96315 | 152.98040 | 24431 ft | 406 kts | 199° |
| 2026-04-24 09:04 | -27.98944 | 152.96886 | 25480 ft | 402 kts | 199° |
| 2026-04-24 09:05 | -28.01545 | 152.95746 | 26570 ft | 399 kts | 199° |
| 2026-04-24 09:05 | -28.04125 | 152.94613 | 27689 ft | 396 kts | 199° |
| 2026-04-24 09:05 | -28.06681 | 152.93488 | 28861 ft | 393 kts | 200° |
| 2026-04-24 09:05 | -28.09229 | 152.92367 | 30084 ft | 390 kts | 200° |
| 2026-04-24 09:06 | -28.11744 | 152.91258 | 31210 ft | 385 kts | 201° |
| 2026-04-24 09:06 | -28.14192 | 152.90167 | 32302 ft | 380 kts | 201° |
| 2026-04-24 09:06 | -28.16667 | 152.89061 | 33052 ft | 386 kts | 202° |
| 2026-04-24 09:06 | -28.19215 | 152.87929 | 33595 ft | 393 kts | 202° |
| 2026-04-24 09:07 | -28.21759 | 152.86801 | 34454 ft | 392 kts | 202° |
| 2026-04-24 09:07 | -28.24284 | 152.85679 | 35240 ft | 388 kts | 202° |
| 2026-04-24 09:07 | -28.29291 | 152.83445 | 36617 ft | 385 kts | 202° |
| 2026-04-24 09:08 | -28.31782 | 152.82337 | 37329 ft | 383 kts | 202° |
| 2026-04-24 09:08 | -28.34255 | 152.81235 | 38071 ft | 380 kts | 202° |
| 2026-04-24 09:08 | -28.36703 | 152.80142 | 38831 ft | 376 kts | 202° |
| 2026-04-24 09:08 | -28.39135 | 152.79056 | 39428 ft | 374 kts | 203° |
| 2026-04-24 09:09 | -28.41561 | 152.77973 | 39937 ft | 374 kts | 203° |
| 2026-04-24 09:09 | -28.43994 | 152.76886 | 40363 ft | 376 kts | 203° |
| 2026-04-24 09:09 | -28.46438 | 152.75792 | 40392 ft | 389 kts | 203° |
| 2026-04-24 09:09 | -28.48996 | 152.74646 | 40395 ft | 401 kts | 203° |
| 2026-04-24 09:10 | -28.51628 | 152.73471 | 40412 ft | 412 kts | 203° |
| 2026-04-24 09:10 | -28.54337 | 152.72259 | 40420 ft | 422 kts | 203° |
| 2026-04-24 09:10 | -28.58984 | 152.70175 | 40419 ft | 434 kts | 203° |
| 2026-04-24 09:11 | -28.64624 | 152.67645 | 40426 ft | 440 kts | 202° |
| 2026-04-24 09:11 | -28.70318 | 152.65093 | 40428 ft | 440 kts | 202° |
| 2026-04-24 09:12 | -28.76003 | 152.62530 | 40429 ft | 438 kts | 202° |
| 2026-04-24 09:12 | -28.81681 | 152.59978 | 40433 ft | 438 kts | 202° |
| 2026-04-24 09:13 | -28.87212 | 152.57168 | 40423 ft | 438 kts | 208° |
| 2026-04-24 09:13 | -28.92608 | 152.53934 | 40430 ft | 438 kts | 208° |
| 2026-04-24 09:14 | -28.98018 | 152.50733 | 40428 ft | 436 kts | 208° |
| 2026-04-24 09:14 | -29.03367 | 152.47538 | 40428 ft | 435 kts | 208° |
| 2026-04-24 09:15 | -29.08741 | 152.44337 | 40442 ft | 435 kts | 208° |
| 2026-04-24 09:15 | -29.14121 | 152.41124 | 40442 ft | 436 kts | 208° |
| 2026-04-24 09:16 | -29.19503 | 152.37907 | 40444 ft | 436 kts | 208° |
| 2026-04-24 09:16 | -29.24887 | 152.34685 | 40448 ft | 436 kts | 208° |
| 2026-04-24 09:17 | -29.30264 | 152.31463 | 40448 ft | 436 kts | 207° |
| 2026-04-24 09:17 | -29.35626 | 152.28249 | 40452 ft | 437 kts | 207° |
| 2026-04-24 09:18 | -29.41023 | 152.25006 | 40452 ft | 437 kts | 207° |
| 2026-04-24 09:18 | -29.46385 | 152.21784 | 40455 ft | 437 kts | 207° |
| 2026-04-24 09:19 | -29.51770 | 152.18539 | 40467 ft | 437 kts | 207° |
| 2026-04-24 09:19 | -29.57111 | 152.15326 | 40459 ft | 432 kts | 207° |
| 2026-04-24 09:20 | -29.63304 | 152.11586 | 40458 ft | 430 kts | 207° |
| 2026-04-24 09:20 | -29.67706 | 152.08927 | 40458 ft | 429 kts | 207° |
| 2026-04-24 09:21 | -29.73307 | 152.06630 | 40454 ft | 428 kts | 193° |
| 2026-04-24 09:21 | -29.79117 | 152.05139 | 40472 ft | 426 kts | 193° |
| 2026-04-24 09:22 | -29.84891 | 152.03619 | 40468 ft | 426 kts | 193° |
| 2026-04-24 09:22 | -29.90635 | 152.02126 | 40476 ft | 425 kts | 193° |
| 2026-04-24 09:23 | -29.96418 | 152.00610 | 40474 ft | 426 kts | 193° |
| 2026-04-24 09:23 | -30.02199 | 151.99098 | 40480 ft | 426 kts | 193° |
| 2026-04-24 09:24 | -30.08002 | 151.97575 | 40483 ft | 427 kts | 193° |
| 2026-04-24 09:24 | -30.13801 | 151.96052 | 40484 ft | 427 kts | 193° |
| 2026-04-24 09:25 | -30.19605 | 151.94527 | 40484 ft | 427 kts | 193° |
| 2026-04-24 09:25 | -30.25362 | 151.93011 | 40482 ft | 427 kts | 193° |
| 2026-04-24 09:26 | -30.31141 | 151.91488 | 40478 ft | 424 kts | 193° |
| 2026-04-24 09:26 | -30.36681 | 151.89129 | 40475 ft | 424 kts | 201° |
| 2026-04-24 09:27 | -30.42167 | 151.86603 | 40476 ft | 424 kts | 200° |
| 2026-04-24 09:27 | -30.47612 | 151.84061 | 40476 ft | 425 kts | 201° |
| 2026-04-24 09:28 | -30.53105 | 151.81503 | 40475 ft | 426 kts | 201° |
| 2026-04-24 09:28 | -30.58605 | 151.78939 | 40474 ft | 426 kts | 201° |
| 2026-04-24 09:29 | -30.64118 | 151.76359 | 40475 ft | 426 kts | 201° |
| 2026-04-24 09:29 | -30.69614 | 151.73791 | 40479 ft | 426 kts | 201° |
| 2026-04-24 09:30 | -30.76044 | 151.70784 | 40478 ft | 426 kts | 200° |
| 2026-04-24 09:30 | -30.80612 | 151.68639 | 40473 ft | 426 kts | 201° |
| 2026-04-24 09:31 | -30.86106 | 151.66061 | 40475 ft | 426 kts | 201° |
| 2026-04-24 09:31 | -30.91577 | 151.63489 | 40484 ft | 426 kts | 200° |
| 2026-04-24 09:32 | -30.97058 | 151.60912 | 40479 ft | 424 kts | 200° |
| 2026-04-24 09:32 | -31.02517 | 151.58339 | 40481 ft | 423 kts | 200° |
| 2026-04-24 09:33 | -31.07969 | 151.55768 | 40477 ft | 423 kts | 200° |
| 2026-04-24 09:33 | -31.13418 | 151.53194 | 40476 ft | 422 kts | 200° |
| 2026-04-24 09:34 | -31.18869 | 151.50617 | 40482 ft | 422 kts | 200° |
| 2026-04-24 09:34 | -31.24328 | 151.48033 | 40482 ft | 423 kts | 200° |
| 2026-04-24 09:35 | -31.29743 | 151.45464 | 40485 ft | 422 kts | 200° |
| 2026-04-24 09:35 | -31.35189 | 151.42880 | 40476 ft | 423 kts | 200° |
| 2026-04-24 09:36 | -31.40667 | 151.40352 | 40476 ft | 423 kts | 198° |
| 2026-04-24 09:36 | -31.46167 | 151.37880 | 40481 ft | 424 kts | 199° |
| 2026-04-24 09:37 | -31.51684 | 151.35419 | 40485 ft | 424 kts | 199° |
| 2026-04-24 09:37 | -31.57197 | 151.32952 | 40479 ft | 423 kts | 199° |
| 2026-04-24 09:38 | -31.62674 | 151.30500 | 40481 ft | 421 kts | 198° |
| 2026-04-24 09:38 | -31.68143 | 151.28049 | 40482 ft | 421 kts | 199° |
| 2026-04-24 09:39 | -31.73622 | 151.25587 | 40486 ft | 421 kts | 198° |
| 2026-04-24 09:39 | -31.79093 | 151.23128 | 40486 ft | 420 kts | 198° |
| 2026-04-24 09:40 | -31.84526 | 151.20682 | 40475 ft | 420 kts | 198° |
| 2026-04-24 09:40 | -31.89988 | 151.18222 | 40475 ft | 420 kts | 198° |
| 2026-04-24 09:41 | -31.95433 | 151.15764 | 40432 ft | 415 kts | 198° |
| 2026-04-24 09:41 | -31.98105 | 151.14566 | 40128 ft | 408 kts | 198° |
| 2026-04-24 09:41 | -32.00751 | 151.13387 | 39662 ft | 405 kts | 197° |
| 2026-04-24 09:42 | -32.03382 | 151.12210 | 39212 ft | 403 kts | 197° |
| 2026-04-24 09:42 | -32.05995 | 151.11036 | 38541 ft | 403 kts | 197° |
| 2026-04-24 09:42 | -32.08641 | 151.09848 | 37836 ft | 410 kts | 197° |
| 2026-04-24 09:42 | -32.11325 | 151.08643 | 37152 ft | 414 kts | 197° |
| 2026-04-24 09:43 | -32.14031 | 151.07426 | 36504 ft | 418 kts | 197° |
| 2026-04-24 09:43 | -32.16746 | 151.06204 | 35914 ft | 418 kts | 197° |
| 2026-04-24 09:43 | -32.19467 | 151.04979 | 35362 ft | 418 kts | 197° |
| 2026-04-24 09:43 | -32.22193 | 151.03752 | 34805 ft | 419 kts | 198° |
| 2026-04-24 09:44 | -32.24889 | 151.02537 | 34245 ft | 419 kts | 198° |
| 2026-04-24 09:44 | -32.27616 | 151.01306 | 33631 ft | 419 kts | 198° |
| 2026-04-24 09:44 | -32.30346 | 151.00075 | 33029 ft | 420 kts | 198° |
| 2026-04-24 09:44 | -32.33092 | 150.98837 | 32441 ft | 422 kts | 198° |
| 2026-04-24 09:45 | -32.35833 | 150.97597 | 31866 ft | 423 kts | 198° |
| 2026-04-24 09:45 | -32.38589 | 150.96351 | 31311 ft | 427 kts | 198° |
| 2026-04-24 09:45 | -32.41384 | 150.95087 | 30758 ft | 433 kts | 198° |
| 2026-04-24 09:45 | -32.44215 | 150.93806 | 30156 ft | 437 kts | 199° |
| 2026-04-24 09:46 | -32.47085 | 150.92579 | 29511 ft | 438 kts | 194° |
| 2026-04-24 09:46 | -32.50075 | 150.91908 | 28884 ft | 437 kts | 184° |
| 2026-04-24 09:46 | -32.53104 | 150.91863 | 28271 ft | 436 kts | 174° |
| 2026-04-24 09:46 | -32.56109 | 150.92342 | 27679 ft | 436 kts | 170° |
| 2026-04-24 09:47 | -32.59114 | 150.92894 | 27098 ft | 439 kts | 170° |
| 2026-04-24 09:47 | -32.62156 | 150.93435 | 26508 ft | 444 kts | 170° |
| 2026-04-24 09:47 | -32.65193 | 150.93963 | 25935 ft | 448 kts | 170° |
| 2026-04-24 09:47 | -32.68291 | 150.94510 | 25356 ft | 450 kts | 170° |
| 2026-04-24 09:48 | -32.71388 | 150.95064 | 24801 ft | 452 kts | 170° |
| 2026-04-24 09:48 | -32.74504 | 150.95621 | 24253 ft | 452 kts | 170° |
| 2026-04-24 09:48 | -32.77618 | 150.96171 | 23643 ft | 452 kts | 170° |
| 2026-04-24 09:48 | -32.80736 | 150.96725 | 23005 ft | 453 kts | 170° |
| 2026-04-24 09:49 | -32.83863 | 150.97283 | 22379 ft | 454 kts | 169° |
| 2026-04-24 09:49 | -32.86997 | 150.97842 | 21772 ft | 456 kts | 169° |
| 2026-04-24 09:49 | -32.90095 | 150.98394 | 21185 ft | 457 kts | 169° |
| 2026-04-24 09:49 | -32.93241 | 150.98955 | 20588 ft | 455 kts | 170° |
| 2026-04-24 09:50 | -32.96380 | 150.99508 | 20009 ft | 447 kts | 170° |
| 2026-04-24 09:50 | -32.99407 | 151.00045 | 19447 ft | 442 kts | 169° |
| 2026-04-24 09:50 | -33.02433 | 151.00588 | 18863 ft | 437 kts | 169° |
| 2026-04-24 09:50 | -33.05409 | 151.01124 | 18110 ft | 429 kts | 169° |
| 2026-04-24 09:51 | -33.08345 | 151.01647 | 17357 ft | 423 kts | 169° |
| 2026-04-24 09:51 | -33.11244 | 151.02164 | 16616 ft | 422 kts | 169° |
| 2026-04-24 09:51 | -33.14189 | 151.02698 | 15888 ft | 431 kts | 169° |
| 2026-04-24 09:51 | -33.17183 | 151.03240 | 15054 ft | 438 kts | 169° |
| 2026-04-24 09:52 | -33.20192 | 151.03768 | 14000 ft | 433 kts | 169° |
| 2026-04-24 09:52 | -33.23130 | 151.04287 | 13153 ft | 419 kts | 169° |
| 2026-04-24 09:52 | -33.25935 | 151.04801 | 12680 ft | 400 kts | 169° |
| 2026-04-24 09:52 | -33.28702 | 151.05344 | 11274 ft | 406 kts | 168° |
| 2026-04-24 09:53 | -33.31500 | 151.05901 | 9937 ft | 408 kts | 168° |
| 2026-04-24 09:53 | -33.34277 | 151.06431 | 8567 ft | 409 kts | 169° |
| 2026-04-24 09:53 | -33.37092 | 151.06960 | 7240 ft | 410 kts | 169° |
| 2026-04-24 09:53 | -33.39945 | 151.07507 | 6110 ft | 406 kts | 169° |
| 2026-04-24 09:54 | -33.42618 | 151.07964 | 5983 ft | 382 kts | 171° |
| 2026-04-24 09:54 | -33.45248 | 151.08372 | 5377 ft | 384 kts | 171° |
| 2026-04-24 09:54 | -33.47935 | 151.08813 | 4930 ft | 391 kts | 170° |
| 2026-04-24 09:54 | -33.50767 | 151.09306 | 4855 ft | 432 kts | 170° |
| 2026-04-24 09:55 | -33.53850 | 151.09843 | 4789 ft | 461 kts | 170° |
| 2026-04-24 09:55 | -33.57095 | 151.10378 | 4720 ft | 478 kts | 171° |
| 2026-04-24 09:55 | -33.60134 | 151.10862 | 4646 ft | 398 kts | 171° |
| 2026-04-24 09:55 | -33.62652 | 151.11275 | 4577 ft | 334 kts | 170° |
| 2026-04-24 09:56 | -33.64773 | 151.11645 | 4461 ft | 292 kts | 170° |
| 2026-04-24 09:56 | -33.66684 | 151.11973 | 4257 ft | 263 kts | 170° |
| 2026-04-24 09:56 | -33.68419 | 151.12264 | 4041 ft | 242 kts | 170° |
| 2026-04-24 09:56 | -33.70104 | 151.12450 | 3997 ft | 245 kts | 172° |
| 2026-04-24 09:57 | -33.71773 | 151.12785 | 3999 ft | 234 kts | 165° |
| 2026-04-24 09:57 | -33.73301 | 151.13205 | 4002 ft | 221 kts | 165° |
| 2026-04-24 09:57 | -33.74838 | 151.13598 | 3989 ft | 233 kts | 166° |
| 2026-04-24 09:57 | -33.75919 | 151.13872 | 3832 ft | 247 kts | 165° |
| 2026-04-24 09:58 | -33.77580 | 151.14313 | 3513 ft | 228 kts | 166° |
| 2026-04-24 09:58 | -33.79123 | 151.14703 | 3212 ft | 226 kts | 165° |
| 2026-04-24 09:58 | -33.80657 | 151.15114 | 2911 ft | 225 kts | 166° |
| 2026-04-24 09:58 | -33.82180 | 151.15496 | 2612 ft | 223 kts | 166° |
| 2026-04-24 09:59 | -33.83693 | 151.15903 | 2315 ft | 222 kts | 166° |
| 2026-04-24 09:59 | -33.85160 | 151.16267 | 2033 ft | 207 kts | 166° |
| 2026-04-24 09:59 | -33.86496 | 151.16626 | 1749 ft | 187 kts | 165° |
| 2026-04-24 09:59 | -33.87720 | 151.16938 | 1510 ft | 173 kts | 165° |
| 2026-04-24 10:00 | -33.88833 | 151.17229 | 1288 ft | 155 kts | 164° |
| 2026-04-24 10:00 | -33.89848 | 151.17493 | 1090 ft | 147 kts | 164° |
| 2026-04-24 10:00 | -33.90862 | 151.17757 | 901 ft | 151 kts | 165° |
| 2026-04-24 10:00 | -33.91889 | 151.18026 | 711 ft | 149 kts | 166° |
| 2026-04-24 10:01 | -33.92875 | 151.18287 | 517 ft | 141 kts | 167° |
| 2026-04-24 10:01 | -33.93798 | 151.18532 | 321 ft | 131 kts | 171° |
| 2026-04-24 10:01 | -33.94678 | 151.18756 | 155 ft | 130 kts | 172° |
| 2026-04-24 10:01 | -33.95560 | 151.18981 | 19 ft | 117 kts | 168° |
| 2026-04-24 10:02 | -33.95944 | 151.19083 | 22 ft | 30 kts | 168° |
| 2026-04-24 10:02 | -33.96105 | 151.19121 | 22 ft | 37 kts | 168° |
| 2026-04-24 10:02 | -33.96390 | 151.19198 | 19 ft | 45 kts | 168° |
| 2026-04-24 10:02 | -33.96649 | 151.19190 | 19 ft | 31 kts | 198° |
| 2026-04-24 10:03 | -33.96660 | 151.19068 | 24 ft | 25 kts | 343° |
| 2026-04-24 10:03 | -33.96471 | 151.19019 | 24 ft | 30 kts | 349° |
| 2026-04-24 10:03 | -33.96249 | 151.18962 | 24 ft | 35 kts | 348° |
| 2026-04-24 10:03 | -33.95999 | 151.18896 | 24 ft | 39 kts | 348° |
| 2026-04-24 10:04 | -33.95722 | 151.18825 | 24 ft | 42 kts | 347° |
| 2026-04-24 10:04 | -33.95434 | 151.18750 | 24 ft | 40 kts | 347° |
| 2026-04-24 10:04 | -33.95202 | 151.18640 | 24 ft | 37 kts | 316° |
| 2026-04-24 10:04 | -33.95123 | 151.18378 | 27 ft | 37 kts | 255° |
| 2026-04-24 10:05 | -33.95174 | 151.18102 | 25 ft | 33 kts | 257° |
| 2026-04-24 10:05 | -33.95095 | 151.17941 | 25 ft | 30 kts | 348° |
| 2026-04-24 10:05 | -33.94873 | 151.17885 | 24 ft | 35 kts | 347° |
| 2026-04-24 10:05 | -33.94630 | 151.17822 | 24 ft | 34 kts | 348° |
| 2026-04-24 10:06 | -33.94422 | 151.17763 | 24 ft | 26 kts | 345° |
| 2026-04-24 10:06 | -33.94004 | 151.17636 | 22 ft | 36 kts | 348° |
| 2026-04-24 10:06 | -33.93857 | 151.17697 | 24 ft | 26 kts | 72° |
| 2026-04-24 10:07 | -33.93805 | 151.17931 | 24 ft | 31 kts | 73° |
| 2026-04-24 10:07 | -33.93740 | 151.18202 | 24 ft | 36 kts | 76° |
| 2026-04-24 10:07 | -33.93666 | 151.18508 | 26 ft | 39 kts | 75° |
| 2026-04-24 10:07 | -33.93628 | 151.18670 | 24 ft | 0 kts | 75° |
| 2026-04-24 10:08 | -33.93593 | 151.18665 | 24 ft | 15 kts | 356° |